Time;durP1;ratioP1;P1;durP2;ratioP2;P2;SDS_P1;SDS_P2;PMS_P1;PMS_P2;Temp;Humidity;BMP_temperature;BMP_pressure;BME280_temperature;BME280_humidity;BME280_pressure;Samples;Min_cycle;Max_cycle;Signal;HPM_P1;HPM_P2
2021/07/18 00:00:42;;;;;;;0.20;0.20;;;;;;;;;;4840246;29;20050;-88
2021/07/18 00:03:08;;;;;;;0.10;0.10;;;;;;;;;;4825011;29;20050;-88
2021/07/18 00:05:34;;;;;;;0.10;0.10;;;;;;;;;;4825234;29;20402;-89
2021/07/18 00:08:06;;;;;;;0.10;0.10;;;;;;;;;;4824841;29;20054;-88
2021/07/18 00:10:32;;;;;;;0.20;0.20;;;;;;;;;;4825223;29;20069;-89
2021/07/18 00:12:58;;;;;;;0.10;0.10;;;;;;;;;;4840258;29;20064;-89
2021/07/18 00:15:24;;;;;;;0.10;0.10;;;;;;;;;;4825072;29;20046;-88
2021/07/18 00:17:50;;;;;;;0.10;0.10;;;;;;;;;;4824829;29;20042;-89
2021/07/18 00:20:16;;;;;;;0.10;0.10;;;;;;;;;;4840056;29;20042;-89
2021/07/18 00:22:42;;;;;;;0.10;0.10;;;;;;;;;;4809619;29;20041;-88
2021/07/18 00:25:09;;;;;;;0.10;0.10;;;;;;;;;;4824914;29;20034;-87
2021/07/18 00:27:35;;;;;;;0.20;0.20;;;;;;;;;;4824819;29;20144;-87
2021/07/18 00:30:01;;;;;;;0.10;0.10;;;;;;;;;;4840043;29;20587;-87
2021/07/18 00:32:27;;;;;;;0.10;0.10;;;;;;;;;;4825892;29;20044;-87
2021/07/18 00:34:54;;;;;;;0.10;0.10;;;;;;;;;;4828181;29;20745;-87
2021/07/18 00:37:20;;;;;;;0.10;0.10;;;;;;;;;;4827911;29;20050;-87
2021/07/18 00:39:46;;;;;;;0.10;0.10;;;;;;;;;;4843349;29;20042;-88
2021/07/18 00:42:16;;;;;;;0.20;0.20;;;;;;;;;;4843377;29;20046;-88
2021/07/18 00:44:42;;;;;;;0.10;0.10;;;;;;;;;;4843245;29;20410;-87
2021/07/18 00:47:08;;;;;;;0.10;0.10;;;;;;;;;;4843045;29;20577;-87
2021/07/18 00:49:37;;;;;;;0.20;0.20;;;;;;;;;;4827822;29;20495;-87
2021/07/18 00:52:03;;;;;;;0.20;0.20;;;;;;;;;;4828308;29;20042;-87
2021/07/18 00:54:29;;;;;;;0.10;0.10;;;;;;;;;;4827809;29;20045;-87
2021/07/18 00:56:57;;;;;;;0.20;0.20;;;;;;;;;;4827764;29;20047;-87
2021/07/18 00:59:23;;;;;;;0.20;0.20;;;;;;;;;;4827895;29;20093;-87
2021/07/18 01:01:49;;;;;;;0.10;0.10;;;;;;;;;;4827679;29;20050;-87
2021/07/18 01:04:15;;;;;;;0.20;0.20;;;;;;;;;;4827594;29;20049;-87
2021/07/18 01:06:41;;;;;;;0.15;0.15;;;;;;;;;;4842894;29;20037;-87
2021/07/18 01:09:07;;;;;;;0.10;0.10;;;;;;;;;;4827617;29;20476;-86
2021/07/18 01:11:33;;;;;;;0.10;0.10;;;;;;;;;;4842960;29;20648;-87
2021/07/18 01:13:59;;;;;;;0.10;0.10;;;;;;;;;;4827336;29;20079;-87
2021/07/18 01:16:26;;;;;;;0.10;0.10;;;;;;;;;;4842527;29;20046;-87
2021/07/18 01:18:52;;;;;;;0.10;0.10;;;;;;;;;;4842625;29;20042;-87
2021/07/18 01:21:21;;;;;;;0.10;0.10;;;;;;;;;;4812265;29;20046;-87
2021/07/18 01:23:47;;;;;;;0.20;0.20;;;;;;;;;;4827227;29;20128;-86
2021/07/18 01:26:13;;;;;;;0.10;0.10;;;;;;;;;;4827253;29;20091;-86
2021/07/18 01:28:39;;;;;;;0.10;0.10;;;;;;;;;;4842310;29;20057;-86
2021/07/18 01:31:07;;;;;;;0.20;0.20;;;;;;;;;;4842601;29;20094;-86
2021/07/18 01:33:33;;;;;;;0.15;0.15;;;;;;;;;;4842580;29;20073;-86
2021/07/18 01:36:01;;;;;;;0.20;0.20;;;;;;;;;;4842336;29;20046;-87
2021/07/18 01:38:27;;;;;;;1.17;0.40;;;;;;;;;;4842243;29;20099;-87
2021/07/18 01:40:53;;;;;;;0.10;0.10;;;;;;;;;;4842244;29;20079;-86
2021/07/18 01:43:19;;;;;;;0.10;0.10;;;;;;;;;;4841564;29;20137;-86
2021/07/18 01:45:45;;;;;;;0.10;0.10;;;;;;;;;;4827006;29;20090;-86
2021/07/18 01:48:11;;;;;;;0.10;0.10;;;;;;;;;;4826861;29;20038;-87
2021/07/18 01:50:38;;;;;;;0.20;0.20;;;;;;;;;;4842073;29;20114;-86
2021/07/18 01:53:04;;;;;;;0.10;0.10;;;;;;;;;;4826562;29;20064;-86
2021/07/18 01:55:30;;;;;;;0.10;0.10;;;;;;;;;;4826909;29;20483;-86
2021/07/18 01:57:56;;;;;;;0.20;0.20;;;;;;;;;;4826654;29;20136;-86
2021/07/18 02:00:22;;;;;;;0.10;0.10;;;;;;;;;;4843059;29;20116;-87
2021/07/18 02:02:49;;;;;;;0.10;0.10;;;;;;;;;;4826701;29;20041;-87
2021/07/18 02:05:15;;;;;;;0.10;0.10;;;;;;;;;;4841799;29;20038;-86
2021/07/18 02:07:42;;;;;;;0.10;0.10;;;;;;;;;;4841711;29;20045;-87
2021/07/18 02:10:08;;;;;;;0.20;0.20;;;;;;;;;;4826916;29;20038;-87
2021/07/18 02:12:35;;;;;;;0.10;0.10;;;;;;;;;;4841608;29;20042;-87
2021/07/18 02:15:01;;;;;;;0.10;0.10;;;;;;;;;;4842767;29;20128;-87
2021/07/18 02:17:27;;;;;;;0.10;0.10;;;;;;;;;;4841498;29;20403;-87
2021/07/18 02:19:53;;;;;;;0.20;0.20;;;;;;;;;;4826437;29;20045;-87
2021/07/18 02:22:22;;;;;;;0.10;0.10;;;;;;;;;;4841477;29;20045;-87
2021/07/18 02:24:48;;;;;;;0.10;0.10;;;;;;;;;;4826232;29;20054;-87
2021/07/18 02:27:15;;;;;;;0.20;0.20;;;;;;;;;;4826235;29;20138;-87
2021/07/18 02:29:41;;;;;;;0.20;0.20;;;;;;;;;;4826472;29;20376;-87
2021/07/18 02:32:07;;;;;;;0.10;0.10;;;;;;;;;;4826432;29;20041;-87
2021/07/18 02:34:33;;;;;;;0.10;0.10;;;;;;;;;;4826298;29;20078;-87
2021/07/18 02:36:59;;;;;;;0.10;0.10;;;;;;;;;;4826215;29;20050;-87
2021/07/18 02:39:25;;;;;;;0.10;0.10;;;;;;;;;;4826061;29;20080;-87
2021/07/18 02:41:51;;;;;;;0.10;0.10;;;;;;;;;;4841212;29;20038;-87
2021/07/18 02:44:18;;;;;;;0.17;0.17;;;;;;;;;;4825689;29;20551;-88
2021/07/18 02:46:44;;;;;;;0.20;0.20;;;;;;;;;;4825997;29;20050;-87
2021/07/18 02:49:10;;;;;;;0.20;0.20;;;;;;;;;;4843316;29;20098;-87
2021/07/18 02:51:36;;;;;;;0.20;0.20;;;;;;;;;;4844296;29;20045;-87
2021/07/18 02:54:02;;;;;;;0.20;0.20;;;;;;;;;;4828777;29;20125;-87
2021/07/18 02:56:28;;;;;;;0.20;0.20;;;;;;;;;;4828342;29;20048;-87
2021/07/18 02:58:54;;;;;;;0.10;0.10;;;;;;;;;;4829060;29;20041;-87
2021/07/18 03:01:20;;;;;;;0.10;0.10;;;;;;;;;;4829026;29;20042;-87
2021/07/18 03:03:47;;;;;;;0.10;0.10;;;;;;;;;;4828890;29;20431;-87
2021/07/18 03:06:13;;;;;;;0.10;0.10;;;;;;;;;;4829002;29;20570;-87
2021/07/18 03:08:40;;;;;;;0.10;0.10;;;;;;;;;;4828490;29;20498;-87
2021/07/18 03:11:06;;;;;;;0.10;0.10;;;;;;;;;;4828758;29;20042;-87
2021/07/18 03:13:32;;;;;;;0.10;0.10;;;;;;;;;;4828806;29;20049;-88
2021/07/18 03:15:58;;;;;;;0.10;0.10;;;;;;;;;;4828789;29;20044;-86
2021/07/18 03:18:24;;;;;;;0.10;0.10;;;;;;;;;;4843747;29;20486;-87
2021/07/18 03:20:50;;;;;;;0.17;0.17;;;;;;;;;;4843728;29;20041;-86
2021/07/18 03:23:16;;;;;;;0.10;0.10;;;;;;;;;;4828514;29;20037;-86
2021/07/18 03:25:42;;;;;;;0.10;0.10;;;;;;;;;;4843909;29;20178;-85
2021/07/18 03:28:09;;;;;;;0.10;0.10;;;;;;;;;;4828698;29;20041;-86
2021/07/18 03:30:35;;;;;;;0.10;0.10;;;;;;;;;;4843706;29;20065;-86
2021/07/18 03:33:01;;;;;;;0.10;0.10;;;;;;;;;;4828549;29;20510;-86
2021/07/18 03:35:27;;;;;;;0.20;0.20;;;;;;;;;;4843705;29;20102;-86
2021/07/18 03:37:54;;;;;;;0.20;0.20;;;;;;;;;;4843421;29;20041;-86
2021/07/18 03:40:20;;;;;;;0.10;0.10;;;;;;;;;;4843592;29;20042;-86
2021/07/18 03:42:47;;;;;;;0.10;0.10;;;;;;;;;;4828375;29;20073;-85
2021/07/18 03:45:13;;;;;;;0.20;0.20;;;;;;;;;;4843607;29;20048;-86
2021/07/18 03:47:39;;;;;;;0.15;0.15;;;;;;;;;;4843361;29;20037;-86
2021/07/18 03:50:05;;;;;;;0.10;0.10;;;;;;;;;;4828141;29;20082;-86
2021/07/18 03:52:31;;;;;;;0.10;0.10;;;;;;;;;;4828205;29;20080;-86
2021/07/18 03:54:58;;;;;;;0.10;0.10;;;;;;;;;;4828344;29;20148;-86
2021/07/18 03:57:24;;;;;;;0.10;0.10;;;;;;;;;;4828109;29;20513;-86
2021/07/18 03:59:51;;;;;;;0.10;0.10;;;;;;;;;;4859714;29;20125;-86
2021/07/18 04:02:17;;;;;;;0.10;0.10;;;;;;;;;;4859805;29;20042;-85
2021/07/18 04:04:43;;;;;;;0.10;0.10;;;;;;;;;;4828294;29;20317;-86
2021/07/18 04:07:09;;;;;;;0.20;0.20;;;;;;;;;;4845529;29;20049;-85
2021/07/18 04:09:35;;;;;;;0.10;0.10;;;;;;;;;;4846982;29;20038;-86
2021/07/18 04:12:01;;;;;;;0.10;0.10;;;;;;;;;;4831611;29;20037;-86
2021/07/18 04:14:27;;;;;;;0.10;0.10;;;;;;;;;;4831580;29;20052;-85
2021/07/18 04:16:53;;;;;;;0.30;0.30;;;;;;;;;;4863205;29;20041;-86
2021/07/18 04:19:19;;;;;;;0.10;0.10;;;;;;;;;;4831499;29;20053;-86
2021/07/18 04:21:45;;;;;;;0.10;0.10;;;;;;;;;;4831479;29;20037;-86
2021/07/18 04:24:11;;;;;;;0.10;0.10;;;;;;;;;;4846682;29;20390;-86
2021/07/18 04:26:38;;;;;;;0.10;0.10;;;;;;;;;;4863146;29;20727;-86
2021/07/18 04:29:04;;;;;;;0.20;0.20;;;;;;;;;;4831365;29;20050;-87
2021/07/18 04:31:30;;;;;;;0.20;0.20;;;;;;;;;;4831332;29;20042;-87
2021/07/18 04:33:59;;;;;;;0.10;0.10;;;;;;;;;;4847048;29;20566;-87
2021/07/18 04:36:25;;;;;;;0.20;0.20;;;;;;;;;;4831098;29;20120;-87
2021/07/18 04:38:52;;;;;;;0.10;0.10;;;;;;;;;;4831200;29;20045;-87
2021/07/18 04:41:18;;;;;;;0.20;0.20;;;;;;;;;;4846694;29;20044;-87
2021/07/18 04:43:44;;;;;;;0.20;0.20;;;;;;;;;;4846458;29;20382;-86
2021/07/18 04:46:11;;;;;;;0.22;0.22;;;;;;;;;;4831013;29;20051;-87
2021/07/18 04:48:38;;;;;;;0.20;0.20;;;;;;;;;;4831173;29;20064;-87
2021/07/18 04:51:04;;;;;;;0.10;0.10;;;;;;;;;;4846145;29;20079;-87
2021/07/18 04:53:30;;;;;;;0.10;0.10;;;;;;;;;;4846202;29;20136;-87
2021/07/18 04:55:57;;;;;;;0.20;0.20;;;;;;;;;;4846310;29;20063;-87
2021/07/18 04:58:24;;;;;;;0.10;0.10;;;;;;;;;;4830997;29;20038;-86
2021/07/18 05:00:50;;;;;;;0.20;0.20;;;;;;;;;;4830788;29;20049;-86
2021/07/18 05:03:16;;;;;;;0.20;0.20;;;;;;;;;;4846153;29;20052;-87
2021/07/18 05:05:42;;;;;;;0.10;0.10;;;;;;;;;;4830743;29;20410;-87
2021/07/18 05:08:08;;;;;;;0.10;0.10;;;;;;;;;;4830604;29;20046;-87
2021/07/18 05:10:34;;;;;;;0.10;0.10;;;;;;;;;;4830652;29;20077;-87
2021/07/18 05:13:00;;;;;;;0.20;0.20;;;;;;;;;;4845955;29;20057;-87
2021/07/18 05:15:27;;;;;;;0.10;0.10;;;;;;;;;;4862334;29;20045;-87
2021/07/18 05:17:54;;;;;;;0.13;0.13;;;;;;;;;;4844869;29;20042;-87
2021/07/18 05:20:23;;;;;;;0.10;0.10;;;;;;;;;;4846203;29;20041;-87
2021/07/18 05:22:50;;;;;;;0.10;0.10;;;;;;;;;;4846497;29;20105;-88
2021/07/18 05:25:16;;;;;;;0.10;0.10;;;;;;;;;;4830419;29;20049;-87
2021/07/18 05:27:42;;;;;;;0.20;0.20;;;;;;;;;;4830349;29;20041;-87
2021/07/18 05:30:09;;;;;;;0.10;0.10;;;;;;;;;;4830397;29;20452;-87
2021/07/18 05:32:35;;;;;;;0.10;0.10;;;;;;;;;;4830459;29;20049;-87
2021/07/18 05:35:01;;;;;;;0.20;0.20;;;;;;;;;;4830279;29;20077;-87
2021/07/18 05:37:27;;;;;;;0.10;0.10;;;;;;;;;;4830080;29;20074;-88
2021/07/18 05:39:55;;;;;;;0.10;0.10;;;;;;;;;;4830483;29;20041;-88
2021/07/18 05:42:21;;;;;;;0.20;0.20;;;;;;;;;;4829984;29;20049;-88
2021/07/18 05:44:47;;;;;;;0.10;0.10;;;;;;;;;;4830000;29;20045;-88
2021/07/18 05:47:13;;;;;;;0.15;0.15;;;;;;;;;;4829904;29;20098;-88
2021/07/18 05:49:39;;;;;;;0.10;0.10;;;;;;;;;;4829870;29;20064;-88
2021/07/18 05:52:06;;;;;;;0.20;0.20;;;;;;;;;;4829929;29;20045;-88
2021/07/18 05:54:32;;;;;;;0.20;0.20;;;;;;;;;;4845232;29;20065;-87
2021/07/18 05:56:58;;;;;;;0.20;0.20;;;;;;;;;;4845127;29;20049;-88
2021/07/18 05:59:24;;;;;;;0.10;0.10;;;;;;;;;;4829896;29;20406;-89
2021/07/18 06:01:50;;;;;;;0.10;0.10;;;;;;;;;;4829988;29;20049;-89
2021/07/18 06:04:16;;;;;;;0.20;0.20;;;;;;;;;;4829804;29;20148;-88
2021/07/18 06:06:42;;;;;;;0.10;0.10;;;;;;;;;;4815021;29;20050;-88
2021/07/18 06:09:08;;;;;;;0.20;0.20;;;;;;;;;;4844947;29;20097;-88
2021/07/18 06:11:34;;;;;;;0.10;0.10;;;;;;;;;;4829663;29;20116;-88
2021/07/18 06:14:00;;;;;;;0.10;0.10;;;;;;;;;;4829534;29;20049;-88
2021/07/18 06:16:28;;;;;;;0.30;0.30;;;;;;;;;;4829814;29;20053;-90
2021/07/18 06:18:54;;;;;;;0.20;0.20;;;;;;;;;;4829986;29;20042;-89
2021/07/18 06:21:20;;;;;;;0.10;0.10;;;;;;;;;;4829732;29;20410;-90
2021/07/18 06:23:46;;;;;;;0.20;0.20;;;;;;;;;;4829508;29;20140;-92
2021/07/18 06:26:14;;;;;;;0.10;0.10;;;;;;;;;;4829854;29;20050;-92
2021/07/18 06:28:41;;;;;;;0.10;0.10;;;;;;;;;;4814552;29;20129;-93
2021/07/18 06:31:07;;;;;;;0.10;0.10;;;;;;;;;;4829872;29;20533;-93
2021/07/18 06:33:33;;;;;;;0.10;0.10;;;;;;;;;;4829516;29;20049;-88
2021/07/18 06:35:59;;;;;;;0.10;0.10;;;;;;;;;;4829741;29;20045;-91
2021/07/18 06:38:25;;;;;;;0.10;0.10;;;;;;;;;;4829614;29;20121;-91
2021/07/18 06:40:55;;;;;;;0.10;0.10;;;;;;;;;;4830646;29;20050;-92
2021/07/18 06:43:21;;;;;;;0.10;0.10;;;;;;;;;;4830021;29;20402;-93
2021/07/18 06:45:47;;;;;;;0.20;0.20;;;;;;;;;;4829811;29;20252;-94
2021/07/18 06:48:13;;;;;;;0.10;0.10;;;;;;;;;;4829833;29;20042;-93
2021/07/18 06:50:40;;;;;;;0.10;0.10;;;;;;;;;;4830047;29;20049;-89
2021/07/18 06:53:06;;;;;;;0.20;0.20;;;;;;;;;;4829238;29;20049;-89
2021/07/18 06:55:32;;;;;;;0.20;0.20;;;;;;;;;;4829108;29;20117;-89
2021/07/18 06:57:58;;;;;;;0.20;0.20;;;;;;;;;;4844058;29;20045;-91
2021/07/18 07:00:24;;;;;;;0.20;0.20;;;;;;;;;;4829434;29;20049;-91
2021/07/18 07:02:50;;;;;;;0.10;0.10;;;;;;;;;;4844525;29;20101;-91
2021/07/18 07:05:16;;;;;;;0.20;0.20;;;;;;;;;;4828974;29;20426;-91
2021/07/18 07:07:46;;;;;;;0.20;0.20;;;;;;;;;;4828973;29;20052;-91
2021/07/18 07:10:13;;;;;;;0.20;0.20;;;;;;;;;;4829913;29;20478;-91
2021/07/18 07:12:39;;;;;;;0.20;0.20;;;;;;;;;;4829038;29;20460;-90
2021/07/18 07:15:05;;;;;;;0.20;0.20;;;;;;;;;;4843734;29;20051;-90
2021/07/18 07:17:34;;;;;;;0.20;0.20;;;;;;;;;;4844132;29;20038;-90
2021/07/18 07:20:01;;;;;;;0.20;0.20;;;;;;;;;;4843942;29;20402;-91
2021/07/18 07:22:27;;;;;;;0.20;0.20;;;;;;;;;;4844213;29;20042;-88
2021/07/18 07:24:54;;;;;;;0.20;0.20;;;;;;;;;;4843744;29;20056;-87
2021/07/18 07:27:28;;;;;;;0.20;0.20;;;;;;;;;;4830132;29;20045;-90
2021/07/18 07:29:54;;;;;;;0.20;0.20;;;;;;;;;;4828863;29;20053;-88
2021/07/18 07:32:21;;;;;;;0.20;0.20;;;;;;;;;;4843901;29;20205;-91
2021/07/18 07:34:47;;;;;;;0.20;0.20;;;;;;;;;;4843965;29;20135;-90
2021/07/18 07:37:13;;;;;;;0.20;0.20;;;;;;;;;;4843780;29;20057;-91
2021/07/18 07:39:40;;;;;;;0.22;0.22;;;;;;;;;;4843654;29;20151;-92
2021/07/18 07:42:10;;;;;;;0.20;0.20;;;;;;;;;;4844033;29;20072;-90
2021/07/18 07:44:37;;;;;;;0.20;0.20;;;;;;;;;;4843717;29;20098;-89
2021/07/18 07:47:03;;;;;;;0.20;0.20;;;;;;;;;;4843413;29;20101;-90
2021/07/18 07:49:29;;;;;;;0.20;0.20;;;;;;;;;;4843421;29;20057;-89
2021/07/18 07:51:56;;;;;;;0.20;0.20;;;;;;;;;;4828473;29;20038;-88
2021/07/18 07:54:22;;;;;;;0.20;0.20;;;;;;;;;;4843379;29;20050;-89
2021/07/18 07:56:48;;;;;;;0.20;0.20;;;;;;;;;;4843351;29;20038;-89
2021/07/18 07:59:14;;;;;;;0.20;0.20;;;;;;;;;;4843349;29;20048;-90
2021/07/18 08:01:40;;;;;;;0.20;0.20;;;;;;;;;;4859742;29;20050;-90
2021/07/18 08:04:06;;;;;;;0.20;0.20;;;;;;;;;;4828224;29;20132;-90
2021/07/18 08:06:32;;;;;;;0.50;0.22;;;;;;;;;;4843159;29;20045;-89
2021/07/18 08:09:00;;;;;;;0.20;0.20;;;;;;;;;;4828723;29;20045;-90
2021/07/18 08:11:27;;;;;;;0.20;0.20;;;;;;;;;;4843694;29;20041;-90
2021/07/18 08:13:57;;;;;;;0.20;0.20;;;;;;;;;;4844137;29;20443;-90
2021/07/18 08:16:23;;;;;;;0.20;0.20;;;;;;;;;;4843210;29;20037;-91
2021/07/18 08:18:49;;;;;;;0.28;0.20;;;;;;;;;;4828166;29;20047;-92
2021/07/18 08:21:15;;;;;;;0.20;0.20;;;;;;;;;;4843088;29;20038;-87
2021/07/18 08:23:41;;;;;;;0.20;0.20;;;;;;;;;;4843043;29;20559;-86
2021/07/18 08:26:07;;;;;;;0.20;0.20;;;;;;;;;;4843174;29;20037;-89
2021/07/18 08:28:38;;;;;;;0.20;0.20;;;;;;;;;;4827933;29;20037;-86
2021/07/18 08:31:04;;;;;;;0.20;0.20;;;;;;;;;;4828458;29;20104;-87
2021/07/18 08:33:30;;;;;;;0.20;0.20;;;;;;;;;;4843196;29;20053;-89
2021/07/18 08:35:57;;;;;;;0.20;0.20;;;;;;;;;;4827758;29;20082;-89
2021/07/18 08:38:23;;;;;;;0.30;0.30;;;;;;;;;;4827911;29;20052;-90
2021/07/18 08:40:50;;;;;;;0.20;0.20;;;;;;;;;;4827459;29;20057;-88
2021/07/18 08:43:19;;;;;;;0.20;0.20;;;;;;;;;;4828649;29;20056;-88
2021/07/18 08:45:46;;;;;;;0.20;0.20;;;;;;;;;;4808200;29;20050;-89
2021/07/18 08:48:12;;;;;;;0.20;0.20;;;;;;;;;;4803391;29;20050;-89
2021/07/18 08:50:39;;;;;;;0.30;0.30;;;;;;;;;;4803326;29;20051;-89
2021/07/18 08:53:05;;;;;;;0.20;0.20;;;;;;;;;;4789225;29;20058;-90
2021/07/18 08:55:31;;;;;;;0.20;0.20;;;;;;;;;;4792278;29;20503;-92
2021/07/18 08:57:57;;;;;;;0.20;0.20;;;;;;;;;;4808758;29;20039;-90
2021/07/18 09:00:23;;;;;;;0.20;0.20;;;;;;;;;;4810072;29;20066;-92
2021/07/18 09:02:49;;;;;;;0.20;0.20;;;;;;;;;;4794953;29;20073;-92
2021/07/18 09:05:16;;;;;;;0.20;0.20;;;;;;;;;;4810198;29;20043;-88
2021/07/18 09:07:46;;;;;;;0.20;0.20;;;;;;;;;;4794365;29;20042;-87
2021/07/18 09:10:12;;;;;;;0.20;0.20;;;;;;;;;;4809569;29;20052;-88
2021/07/18 09:12:38;;;;;;;0.20;0.20;;;;;;;;;;4809486;29;20043;-87
2021/07/18 09:15:05;;;;;;;0.20;0.20;;;;;;;;;;4798409;29;20050;-87
2021/07/18 09:17:35;;;;;;;0.20;0.20;;;;;;;;;;4809404;29;20042;-87
2021/07/18 09:20:11;;;;;;;0.20;0.20;;;;;;;;;;4809717;29;20195;-87
2021/07/18 09:22:37;;;;;;;0.20;0.20;;;;;;;;;;4809544;29;20124;-87
2021/07/18 09:25:04;;;;;;;0.20;0.20;;;;;;;;;;4809667;29;20047;-88
2021/07/18 09:27:31;;;;;;;0.20;0.20;;;;;;;;;;4830786;29;20042;-88
2021/07/18 09:29:57;;;;;;;0.20;0.20;;;;;;;;;;4826511;29;20542;-88
2021/07/18 09:32:24;;;;;;;0.20;0.20;;;;;;;;;;4843611;29;20077;-88
2021/07/18 09:34:51;;;;;;;0.20;0.20;;;;;;;;;;4812318;29;20053;-88
2021/07/18 09:37:20;;;;;;;0.20;0.20;;;;;;;;;;4843683;29;20038;-88
2021/07/18 09:39:55;;;;;;;0.20;0.20;;;;;;;;;;4827120;29;20038;-88
2021/07/18 09:42:45;;;;;;;0.28;0.28;;;;;;;;;;4842278;29;20038;-88
2021/07/18 09:45:13;;;;;;;0.30;0.30;;;;;;;;;;4838868;29;20061;-90
2021/07/18 09:47:55;;;;;;;0.20;0.20;;;;;;;;;;4843425;29;20048;-88
2021/07/18 09:50:21;;;;;;;;;;;;;;;;;;4854818;29;20085;-86
2021/07/18 09:52:50;;;;;;;0.20;0.20;;;;;;;;;;4861540;29;20008;-86
2021/07/18 09:55:22;;;;;;;0.20;0.20;;;;;;;;;;4845656;29;20498;-86
2021/07/18 09:57:52;;;;;;;0.30;0.30;;;;;;;;;;4845022;29;20058;-85
2021/07/18 10:00:18;;;;;;;0.20;0.20;;;;;;;;;;4845091;29;20041;-85
2021/07/18 10:02:45;;;;;;;0.30;0.30;;;;;;;;;;4844925;29;20060;-86
2021/07/18 10:05:27;;;;;;;0.28;0.28;;;;;;;;;;4844261;29;20059;-87
2021/07/18 10:07:53;;;;;;;0.20;0.20;;;;;;;;;;4844771;29;20470;-87
2021/07/18 10:10:18;;;;;;;0.20;0.20;;;;;;;;;;4829563;29;20041;-87
2021/07/18 10:12:44;;;;;;;0.22;0.22;;;;;;;;;;4845240;29;20042;-87
2021/07/18 10:15:11;;;;;;;0.20;0.20;;;;;;;;;;4845194;29;20072;-88
2021/07/18 10:17:37;;;;;;;0.20;0.20;;;;;;;;;;4829444;29;20051;-89
2021/07/18 10:20:06;;;;;;;0.30;0.30;;;;;;;;;;4844804;29;20080;-87
2021/07/18 10:22:32;;;;;;;0.20;0.20;;;;;;;;;;4861116;29;20090;-87
2021/07/18 10:24:58;;;;;;;0.20;0.20;;;;;;;;;;4845359;29;20404;-86
2021/07/18 10:27:24;;;;;;;0.20;0.20;;;;;;;;;;4829573;29;20037;-87
2021/07/18 10:29:52;;;;;;;0.20;0.20;;;;;;;;;;4829559;29;20383;-86
2021/07/18 10:32:19;;;;;;;0.30;0.30;;;;;;;;;;4844382;29;20041;-87
2021/07/18 10:34:46;;;;;;;0.20;0.20;;;;;;;;;;4844426;29;20096;-86
2021/07/18 10:37:12;;;;;;;0.28;0.28;;;;;;;;;;4814047;29;20053;-86
2021/07/18 10:39:45;;;;;;;0.20;0.20;;;;;;;;;;4829326;29;20053;-87
2021/07/18 10:42:15;;;;;;;0.20;0.20;;;;;;;;;;4829720;29;20068;-87
2021/07/18 10:44:43;;;;;;;0.20;0.20;;;;;;;;;;4844203;29;20052;-86
2021/07/18 10:47:11;;;;;;;0.20;0.20;;;;;;;;;;4830041;29;20053;-86
2021/07/18 10:49:49;;;;;;;0.22;0.22;;;;;;;;;;4810329;29;20133;-87
2021/07/18 10:52:15;;;;;;;0.20;0.20;;;;;;;;;;4808029;29;20046;-85
2021/07/18 10:54:42;;;;;;;0.20;0.20;;;;;;;;;;4792815;29;20456;-86
2021/07/18 10:57:20;;;;;;;0.20;0.20;;;;;;;;;;4807714;29;20049;-86
2021/07/18 10:59:46;;;;;;;0.20;0.20;;;;;;;;;;4807654;29;20073;-86
2021/07/18 11:02:12;;;;;;;0.20;0.20;;;;;;;;;;4807594;29;20066;-86
2021/07/18 11:04:43;;;;;;;0.25;0.25;;;;;;;;;;4807434;29;20054;-86
2021/07/18 11:07:21;;;;;;;0.20;0.20;;;;;;;;;;4807623;29;20410;-87
2021/07/18 11:09:47;;;;;;;0.20;0.20;;;;;;;;;;4823771;29;20293;-87
2021/07/18 11:12:29;;;;;;;0.20;0.20;;;;;;;;;;4807265;29;20049;-88
2021/07/18 11:15:14;;;;;;;0.20;0.20;;;;;;;;;;4792354;29;20132;-86
2021/07/18 11:17:55;;;;;;;0.20;0.20;;;;;;;;;;4823287;29;20053;-87
2021/07/18 11:20:35;;;;;;;0.20;0.20;;;;;;;;;;4792181;29;20046;-86
2021/07/18 11:23:02;;;;;;;0.20;0.20;;;;;;;;;;4792294;29;20121;-86
2021/07/18 11:25:38;;;;;;;0.20;0.20;;;;;;;;;;4792196;29;20069;-87
2021/07/18 11:28:04;;;;;;;0.20;0.20;;;;;;;;;;4807293;29;20046;-88
2021/07/18 11:30:39;;;;;;;0.20;0.20;;;;;;;;;;4792278;29;20133;-85
2021/07/18 11:33:24;;;;;;;0.20;0.20;;;;;;;;;;4807137;29;20042;-85
2021/07/18 11:35:56;;;;;;;0.35;0.28;;;;;;;;;;4823386;29;20126;-86
2021/07/18 11:38:22;;;;;;;0.20;0.20;;;;;;;;;;4807027;29;20042;-87
2021/07/18 11:40:48;;;;;;;0.20;0.20;;;;;;;;;;4792084;29;20388;-85
2021/07/18 11:43:14;;;;;;;0.20;0.20;;;;;;;;;;4791833;29;20043;-85
2021/07/18 11:45:40;;;;;;;0.40;0.20;;;;;;;;;;4807071;29;20046;-85
2021/07/18 11:48:07;;;;;;;0.20;0.20;;;;;;;;;;4833381;29;20182;-85
2021/07/18 11:50:33;;;;;;;0.20;0.20;;;;;;;;;;4853054;29;20718;-85
2021/07/18 11:52:59;;;;;;;0.73;0.73;;;;;;;;;;4843245;29;20045;-85
2021/07/18 11:55:26;;;;;;;0.20;0.20;;;;;;;;;;4843287;29;20052;-85
2021/07/18 11:57:53;;;;;;;0.20;0.20;;;;;;;;;;4843052;29;20038;-85
2021/07/18 12:00:19;;;;;;;0.50;0.50;;;;;;;;;;4828261;29;20042;-85
2021/07/18 12:02:46;;;;;;;0.20;0.20;;;;;;;;;;4827927;29;20069;-85
2021/07/18 12:05:12;;;;;;;0.45;0.45;;;;;;;;;;4828196;29;20106;-86
2021/07/18 12:07:38;;;;;;;0.20;0.20;;;;;;;;;;4843069;29;20045;-86
2021/07/18 12:10:05;;;;;;;0.20;0.20;;;;;;;;;;4843113;29;20097;-85
2021/07/18 12:12:31;;;;;;;0.32;0.32;;;;;;;;;;4843173;29;20094;-85
2021/07/18 12:14:57;;;;;;;0.30;0.30;;;;;;;;;;4843236;29;20049;-88
2021/07/18 12:17:23;;;;;;;1.63;1.15;;;;;;;;;;4843204;29;20065;-85
2021/07/18 12:19:49;;;;;;;0.20;0.20;;;;;;;;;;4843082;29;20138;-86
2021/07/18 12:22:18;;;;;;;0.20;0.20;;;;;;;;;;4843024;29;20170;-86
2021/07/18 12:24:48;;;;;;;0.20;0.20;;;;;;;;;;4843476;29;20037;-86
2021/07/18 12:27:17;;;;;;;0.52;0.30;;;;;;;;;;4843774;29;20041;-86
2021/07/18 12:29:45;;;;;;;0.20;0.20;;;;;;;;;;4831373;29;20045;-87
2021/07/18 12:32:11;;;;;;;0.20;0.20;;;;;;;;;;4831402;29;20189;-87
2021/07/18 12:34:37;;;;;;;0.20;0.20;;;;;;;;;;4809246;29;20503;-85
2021/07/18 12:37:13;;;;;;;0.28;0.28;;;;;;;;;;4826023;29;20046;-85
2021/07/18 12:39:39;;;;;;;0.20;0.20;;;;;;;;;;4791831;29;20039;-85
2021/07/18 12:42:10;;;;;;;0.20;0.20;;;;;;;;;;4828552;29;20069;-86
2021/07/18 12:44:36;;;;;;;0.20;0.20;;;;;;;;;;4828251;29;20053;-85
2021/07/18 12:47:16;;;;;;;0.20;0.20;;;;;;;;;;4827946;29;20037;-86
2021/07/18 12:49:44;;;;;;;0.20;0.20;;;;;;;;;;4827988;29;20062;-86
2021/07/18 12:52:10;;;;;;;0.20;0.20;;;;;;;;;;4827728;29;20794;-87
2021/07/18 12:54:36;;;;;;;0.20;0.20;;;;;;;;;;4844053;29;20526;-86
2021/07/18 12:57:02;;;;;;;0.20;0.20;;;;;;;;;;4791169;29;20565;-87
2021/07/18 12:59:28;;;;;;;0.20;0.20;;;;;;;;;;4820056;29;20450;-87
2021/07/18 13:02:10;;;;;;;0.20;0.20;;;;;;;;;;4793543;29;20079;-89
2021/07/18 13:04:36;;;;;;;0.30;0.30;;;;;;;;;;4784336;29;20107;-85
2021/07/18 13:07:09;;;;;;;0.20;0.20;;;;;;;;;;4791699;29;20492;-88
2021/07/18 13:09:35;;;;;;;1.25;0.30;;;;;;;;;;4788464;30;20043;-87
2021/07/18 13:12:01;;;;;;;0.55;0.52;;;;;;;;;;4793553;29;20518;-88
2021/07/18 13:14:30;;;;;;;0.20;0.20;;;;;;;;;;4806427;29;20050;-87
2021/07/18 13:17:04;;;;;;;0.20;0.20;;;;;;;;;;4808145;29;20054;-87
2021/07/18 13:19:30;;;;;;;0.20;0.20;;;;;;;;;;4797827;29;20434;-88
2021/07/18 13:22:00;;;;;;;0.20;0.20;;;;;;;;;;4790056;29;20122;-88
2021/07/18 13:24:36;;;;;;;0.40;0.40;;;;;;;;;;4773140;30;20130;-89
2021/07/18 13:27:16;;;;;;;0.20;0.20;;;;;;;;;;4790649;29;20039;-86
2021/07/18 13:29:46;;;;;;;0.20;0.20;;;;;;;;;;4818191;29;20488;-86
2021/07/18 13:32:13;;;;;;;0.32;0.32;;;;;;;;;;4791063;29;20484;-88
2021/07/18 13:34:40;;;;;;;0.20;0.20;;;;;;;;;;4806125;29;20082;-88
2021/07/18 13:37:06;;;;;;;0.30;0.30;;;;;;;;;;4806010;29;20043;-88
2021/07/18 13:39:33;;;;;;;0.20;0.20;;;;;;;;;;4786947;29;20075;-88
2021/07/18 13:42:05;;;;;;;0.30;0.20;;;;;;;;;;4775406;29;20047;-89
2021/07/18 13:44:31;;;;;;;0.25;0.25;;;;;;;;;;4807001;29;20445;-86
2021/07/18 13:46:57;;;;;;;0.30;0.30;;;;;;;;;;4789932;29;20484;-87
2021/07/18 13:49:23;;;;;;;0.20;0.20;;;;;;;;;;4800779;29;20054;-87
2021/07/18 13:51:55;;;;;;;0.20;0.20;;;;;;;;;;4810368;29;20042;-87
2021/07/18 13:54:21;;;;;;;0.20;0.20;;;;;;;;;;4811835;29;20417;-88
2021/07/18 13:56:47;;;;;;;0.35;0.30;;;;;;;;;;4812783;29;20034;-86
2021/07/18 13:59:13;;;;;;;0.20;0.20;;;;;;;;;;4821271;29;20456;-86
2021/07/18 14:01:42;;;;;;;0.20;0.20;;;;;;;;;;4813264;29;20069;-88
2021/07/18 14:04:11;;;;;;;0.20;0.20;;;;;;;;;;4831064;29;20426;-87
2021/07/18 14:06:37;;;;;;;0.20;0.20;;;;;;;;;;4826534;29;20038;-88
2021/07/18 14:09:04;;;;;;;0.20;0.20;;;;;;;;;;4811698;29;20075;-87
2021/07/18 14:11:30;;;;;;;1.13;0.75;;;;;;;;;;4817006;29;20057;-85
2021/07/18 14:13:56;;;;;;;0.45;0.30;;;;;;;;;;4808526;29;20074;-88
2021/07/18 14:16:22;;;;;;;0.17;0.17;;;;;;;;;;4825283;29;20097;-85
2021/07/18 14:18:48;;;;;;;0.20;0.20;;;;;;;;;;4808297;29;20424;-85
2021/07/18 14:21:14;;;;;;;0.20;0.20;;;;;;;;;;4808407;29;20052;-86
2021/07/18 14:23:40;;;;;;;0.20;0.20;;;;;;;;;;4824382;29;20053;-86
2021/07/18 14:26:06;;;;;;;0.20;0.20;;;;;;;;;;4808381;29;20047;-88
2021/07/18 14:28:33;;;;;;;0.20;0.20;;;;;;;;;;4824927;29;20045;-89
2021/07/18 14:30:59;;;;;;;0.20;0.20;;;;;;;;;;4810582;29;20471;-87
2021/07/18 14:33:25;;;;;;;0.20;0.20;;;;;;;;;;4811186;29;20086;-89
2021/07/18 14:35:51;;;;;;;0.10;0.10;;;;;;;;;;4811127;29;20071;-86
2021/07/18 14:38:18;;;;;;;0.10;0.10;;;;;;;;;;4823965;29;20387;-87
2021/07/18 14:40:44;;;;;;;0.20;0.20;;;;;;;;;;4820252;29;20039;-86
2021/07/18 14:43:10;;;;;;;0.20;0.20;;;;;;;;;;4808793;29;20498;-87